This is the latest recevied weather packets stored in our database for station/object W8XLR-2. If no packets are shown the sender has not sent any weather packets the latest 1 day(s).
| Time | Temp. | Humidity | Pressure | Rain* | Wind** | Luminosity | Snow |
|---|---|---|---|---|---|---|---|
| 1836274643 | 30.56° C | 60% | 1023.6 hPa | 0 mm | 0.45 m/s, 252° | - | - |
| 1836274474 | 30.56° C | 60% | 1023.6 hPa | 0 mm | 0.45 m/s, 252° | - | - |
| 1836274322 | 30.56° C | 60% | 1023.6 hPa | 0 mm | 0.45 m/s, 252° | - | - |
| 1836273988 | 30.56° C | 60% | 1023.6 hPa | 0 mm | 0.45 m/s, 252° | - | - |
| 1836273870 | 30.56° C | 60% | 1023.6 hPa | 0 mm | 0.45 m/s, 252° | - | - |
| 1778051808 | 9.44° C | 96% | 1009.2 hPa | 1.78 mm | 0.45 m/s, 45° | - | - |
| 1778051409 | 9.44° C | 96% | 1009.2 hPa | 1.78 mm | 0.45 m/s, 81° | - | - |
| 1778051209 | 9.44° C | 96% | 1009.2 hPa | 1.78 mm | 0.45 m/s, 81° | - | - |
| 1778050608 | 9.44° C | 96% | 1009.4 hPa | 1.52 mm | 0.45 m/s, 50° | - | - |
| 1778050074 | 9.44° C | 96% | 1009.4 hPa | 1.52 mm | 0.45 m/s, 50° | - | - |
| 1778050008 | 9.44° C | 96% | 1009.4 hPa | 1.52 mm | 0.45 m/s, 50° | - | - |
| 1778049413 | 9.44° C | 96% | 1009.7 hPa | 1.27 mm | 0 m/s | - | - |
| 1778048877 | 9.44° C | 96% | 1010 hPa | 1.27 mm | 0.45 m/s, 59° | - | - |
| 1778048811 | 9.44° C | 96% | 1010 hPa | 1.27 mm | 0.45 m/s, 59° | - | - |
| 1778048208 | 9.44° C | 96% | 1010 hPa | 1.27 mm | 0.45 m/s, 59° | - | - |
| 1778047644 | 10° C | 96% | 1009.9 hPa | 1.52 mm | 0 m/s | - | - |
| 1778047610 | 10° C | 96% | 1009.9 hPa | 1.52 mm | 0 m/s | - | - |
| 1778047074 | 10° C | 96% | 1010.2 hPa | 1.78 mm | 0 m/s | - | - |
| 1778047012 | 10° C | 96% | 1010.2 hPa | 1.78 mm | 0 m/s | - | - |
| 1778046408 | 10° C | 96% | 1010.2 hPa | 1.78 mm | 0 m/s | - | - |
| 1778045809 | 10° C | 96% | 1010.4 hPa | 1.78 mm | 0.45 m/s, 54° | - | - |
| 1778045208 | 10° C | 96% | 1010.5 hPa | 1.78 mm | 0 m/s | - | - |
| 1778044609 | 10° C | 96% | 1010.5 hPa | 1.78 mm | 0 m/s | - | - |
| 1778044008 | 10° C | 96% | 1010.6 hPa | 1.52 mm | 0.45 m/s, 39° | - | - |
| 1778043411 | 10° C | 96% | 1010.7 hPa | 1.27 mm | 0.45 m/s, 359° | - | - |
* Rain latest hour (hover to see other rain measurements)
** Current wind speed in m/s (hover to see current wind gust speed)